createdAt,value
2019-03-23T00:02:08.255Z,7.24
2019-03-23T00:04:38.782Z,7.18
2019-03-23T00:07:09.436Z,7.08
2019-03-23T00:09:39.958Z,7.04
2019-03-23T00:12:10.503Z,7.08
2019-03-23T00:14:40.957Z,6.99
2019-03-23T00:17:11.438Z,6.91
2019-03-23T00:19:41.888Z,6.86
2019-03-23T00:22:12.378Z,6.74
2019-03-23T00:24:42.987Z,6.74
2019-03-23T00:27:13.540Z,6.70
2019-03-23T00:29:44.075Z,6.60
2019-03-23T00:32:14.642Z,6.54
2019-03-23T00:34:45.163Z,6.45
2019-03-23T00:37:15.645Z,6.39
2019-03-23T00:39:46.193Z,6.35
2019-03-23T00:42:17.009Z,6.29
2019-03-23T00:44:47.543Z,6.26
2019-03-23T00:47:19.101Z,6.22
2019-03-23T00:49:49.549Z,6.16
2019-03-23T00:52:20.119Z,6.13
2019-03-23T00:54:50.552Z,6.13
2019-03-23T00:57:21.354Z,6.03
2019-03-23T00:59:51.867Z,6.00
2019-03-23T01:02:22.429Z,5.95
2019-03-23T01:04:53.439Z,5.86
2019-03-23T01:07:23.972Z,5.84
2019-03-23T01:09:55.434Z,5.83
2019-03-23T01:12:25.939Z,5.77
2019-03-23T01:14:56.544Z,5.71
2019-03-23T01:17:27.014Z,5.67
2019-03-23T01:19:57.603Z,5.60
2019-03-23T01:22:28.353Z,5.54
2019-03-23T01:24:58.811Z,5.50
2019-03-23T01:27:29.360Z,5.52
2019-03-23T01:29:59.891Z,5.42
2019-03-23T01:32:30.553Z,5.40
2019-03-23T01:35:01.154Z,5.37
2019-03-23T01:37:31.797Z,5.35
2019-03-23T01:40:02.389Z,5.33
2019-03-23T01:42:32.936Z,5.29
2019-03-23T01:45:04.306Z,5.24
2019-03-23T01:47:34.856Z,5.20
2019-03-23T01:50:08.569Z,5.17
2019-03-23T01:52:39.149Z,5.17
2019-03-23T01:55:09.692Z,5.20
2019-03-23T01:57:41.383Z,5.16
2019-03-23T02:00:12.959Z,5.10
2019-03-23T02:02:43.487Z,5.08
2019-03-23T02:05:14.011Z,5.07
2019-03-23T02:07:44.485Z,5.07
2019-03-23T02:10:15.144Z,5.05
2019-03-23T02:12:45.703Z,5.00
2019-03-23T02:15:16.149Z,4.97
2019-03-23T02:17:46.623Z,4.90
2019-03-23T02:20:17.068Z,4.84
2019-03-23T02:22:47.664Z,4.80
2019-03-23T02:25:18.198Z,4.79
2019-03-23T02:27:50.155Z,4.80
2019-03-23T02:30:20.612Z,4.75
2019-03-23T02:32:51.170Z,4.79
2019-03-23T02:35:21.614Z,4.84
2019-03-23T02:37:52.167Z,4.77
2019-03-23T02:40:22.670Z,4.80
2019-03-23T02:42:53.173Z,4.74
2019-03-23T02:45:23.687Z,4.70
2019-03-23T02:47:55.244Z,4.67
2019-03-23T02:50:25.755Z,4.65
2019-03-23T02:52:56.367Z,4.62
2019-03-23T02:55:26.904Z,4.57
2019-03-23T02:57:57.400Z,4.52
2019-03-23T03:00:27.856Z,4.45
2019-03-23T03:02:58.481Z,4.43
2019-03-23T03:05:29.009Z,4.37
2019-03-23T03:07:59.496Z,4.34
2019-03-23T03:10:38.082Z,4.30
2019-03-23T03:13:08.714Z,4.26
2019-03-23T03:15:40.807Z,4.25
2019-03-23T03:18:11.380Z,4.26
2019-03-23T03:20:42.921Z,4.29
2019-03-23T03:23:14.574Z,4.34
2019-03-23T03:25:45.093Z,4.28
2019-03-23T03:28:15.555Z,4.27
2019-03-23T03:30:46.090Z,4.28
2019-03-23T03:33:16.654Z,4.18
2019-03-23T03:35:47.132Z,4.18
2019-03-23T03:38:17.619Z,4.11
2019-03-23T03:40:48.149Z,4.06
2019-03-23T03:43:18.700Z,4.05
2019-03-23T03:45:49.139Z,4.05
2019-03-23T03:48:19.684Z,4.13
2019-03-23T03:50:50.204Z,4.11
2019-03-23T03:53:20.792Z,4.08
2019-03-23T03:55:51.317Z,4.02
2019-03-23T03:58:21.826Z,4.00
2019-03-23T04:00:52.288Z,3.95
2019-03-23T04:03:22.762Z,3.96
2019-03-23T04:05:53.218Z,3.93
2019-03-23T04:08:23.688Z,3.90
2019-03-23T04:10:54.205Z,3.87
2019-03-23T04:13:24.786Z,3.86
2019-03-23T04:15:55.397Z,3.86
2019-03-23T04:18:25.886Z,3.83
2019-03-23T04:20:56.398Z,3.89
2019-03-23T04:23:27.960Z,3.93
2019-03-23T04:25:58.388Z,3.90
2019-03-23T04:28:28.968Z,3.85
2019-03-23T04:30:59.496Z,3.80
2019-03-23T04:33:30.371Z,3.77
2019-03-23T04:36:00.999Z,3.76
2019-03-23T04:38:31.649Z,3.79
2019-03-23T04:41:02.102Z,3.76
2019-03-23T04:43:32.681Z,3.74
2019-03-23T04:46:03.195Z,3.75
2019-03-23T04:48:33.771Z,3.74
2019-03-23T04:51:04.463Z,3.70
2019-03-23T04:53:34.973Z,3.68
2019-03-23T04:56:05.541Z,3.70
2019-03-23T04:58:36.192Z,3.73
2019-03-23T05:01:06.765Z,3.73
2019-03-23T05:03:37.216Z,3.76
2019-03-23T05:06:07.680Z,3.75
2019-03-23T05:08:38.270Z,3.86
2019-03-23T05:11:08.731Z,3.97
2019-03-23T05:13:39.191Z,4.05
2019-03-23T05:16:09.820Z,4.10
2019-03-23T05:18:40.561Z,4.17
2019-03-23T05:21:11.071Z,4.24
2019-03-23T05:23:42.612Z,4.25
2019-03-23T05:26:13.290Z,4.32
2019-03-23T05:28:43.727Z,4.38
2019-03-23T05:31:14.300Z,4.44
2019-03-23T05:33:44.911Z,4.52
2019-03-23T05:36:15.646Z,4.57
2019-03-23T05:38:46.160Z,4.67
2019-03-23T05:41:16.776Z,4.73
2019-03-23T05:43:47.237Z,4.78
2019-03-23T05:46:19.136Z,4.96
2019-03-23T05:48:49.620Z,5.10
2019-03-23T05:51:20.145Z,5.14
2019-03-23T05:53:50.599Z,5.20
2019-03-23T05:56:21.207Z,5.26
2019-03-23T05:58:51.858Z,5.32
2019-03-23T06:01:22.461Z,5.38
2019-03-23T06:03:53.080Z,5.44
2019-03-23T06:06:23.606Z,5.56
2019-03-23T06:08:55.382Z,5.63
2019-03-23T06:11:26.140Z,5.76
2019-03-23T06:13:56.618Z,5.86
2019-03-23T06:16:27.207Z,5.97
2019-03-23T06:18:57.729Z,6.09
2019-03-23T06:21:28.323Z,6.25
2019-03-23T06:23:58.896Z,6.42
2019-03-23T06:26:29.492Z,6.59
2019-03-23T06:28:59.941Z,6.74
2019-03-23T06:31:30.386Z,6.89
2019-03-23T06:34:00.842Z,7.06
2019-03-23T06:36:31.427Z,7.18
2019-03-23T06:39:05.734Z,7.32
2019-03-23T06:41:34.264Z,7.51
2019-03-23T06:44:04.919Z,7.67
2019-03-23T06:46:35.566Z,7.82
2019-03-23T06:49:06.107Z,7.91
2019-03-23T06:51:36.704Z,8.07
2019-03-23T06:54:07.477Z,8.18
2019-03-23T06:56:37.946Z,8.29
2019-03-23T06:59:08.479Z,8.36
2019-03-23T07:01:39.106Z,8.50
2019-03-23T07:04:10.089Z,8.63
2019-03-23T07:06:40.675Z,8.76
2019-03-23T07:09:16.169Z,8.87
2019-03-23T07:11:43.416Z,8.93
2019-03-23T07:14:14.969Z,9.06
2019-03-23T07:16:46.118Z,9.14
2019-03-23T07:19:16.675Z,9.27
2019-03-23T07:21:47.308Z,9.40
2019-03-23T07:24:17.914Z,9.47
2019-03-23T07:26:48.526Z,9.51
2019-03-23T07:29:19.114Z,9.62
2019-03-23T07:31:49.676Z,9.73
2019-03-23T07:34:20.215Z,9.82
2019-03-23T07:36:50.829Z,9.89
2019-03-23T07:39:28.018Z,9.99
2019-03-23T07:41:53.625Z,10.08
2019-03-23T07:44:24.158Z,10.17
2019-03-23T07:46:54.651Z,10.31
2019-03-23T07:49:25.103Z,10.35
2019-03-23T07:51:55.725Z,10.46
2019-03-23T07:54:29.395Z,10.58
2019-03-23T07:57:05.560Z,10.72
2019-03-23T07:59:37.786Z,10.78
2019-03-23T08:02:09.675Z,10.86
2019-03-23T08:04:40.748Z,10.89
2019-03-23T08:07:11.223Z,11.02
2019-03-23T08:09:42.210Z,11.09
2019-03-23T08:12:12.705Z,11.25
2019-03-23T08:14:43.165Z,11.36
2019-03-23T08:17:13.718Z,11.41
2019-03-23T08:19:45.247Z,11.49
2019-03-23T08:22:15.847Z,11.57
2019-03-23T08:24:49.037Z,11.69
2019-03-23T08:27:19.683Z,11.79
2019-03-23T08:29:50.173Z,11.90
2019-03-23T08:32:21.298Z,12.06
2019-03-23T08:34:51.831Z,12.20
2019-03-23T08:37:22.382Z,12.28
2019-03-23T08:39:52.993Z,12.38
2019-03-23T08:42:23.547Z,12.46
2019-03-23T08:44:54.071Z,12.58
2019-03-23T08:47:24.560Z,12.69
2019-03-23T08:49:55.085Z,12.82
2019-03-23T08:52:25.637Z,12.90
2019-03-23T08:54:56.164Z,12.98
2019-03-23T08:57:26.722Z,13.03
2019-03-23T08:59:57.172Z,13.14
2019-03-23T09:02:28.039Z,13.29
2019-03-23T09:04:58.620Z,13.39
2019-03-23T09:07:29.257Z,13.48
2019-03-23T09:09:59.821Z,13.61
2019-03-23T09:12:30.665Z,13.67
2019-03-23T09:15:01.183Z,13.79
2019-03-23T09:17:31.731Z,13.76
2019-03-23T09:20:02.242Z,13.82
2019-03-23T09:22:32.787Z,13.97
2019-03-23T09:25:03.658Z,14.10
2019-03-23T09:27:34.218Z,14.12
2019-03-23T09:30:09.924Z,14.24
2019-03-23T09:32:40.483Z,14.28
2019-03-23T09:35:11.002Z,14.41
2019-03-23T09:37:41.550Z,14.47
2019-03-23T09:40:12.076Z,14.56
2019-03-23T09:42:42.642Z,14.64
2019-03-23T09:45:14.340Z,14.73
2019-03-23T09:47:45.552Z,14.75
2019-03-23T09:50:16.084Z,14.88
2019-03-23T09:52:46.629Z,14.98
2019-03-23T09:55:17.202Z,15.01
2019-03-23T09:57:47.696Z,15.11
2019-03-23T10:00:18.297Z,15.16
2019-03-23T10:02:48.852Z,15.32
2019-03-23T10:05:19.344Z,15.42
2019-03-23T10:07:49.885Z,15.46
2019-03-23T10:10:21.948Z,15.54
2019-03-23T10:12:52.701Z,15.55
2019-03-23T10:15:23.359Z,15.68
2019-03-23T10:17:53.919Z,15.86
2019-03-23T10:20:24.507Z,15.88
2019-03-23T10:22:55.061Z,16.03
2019-03-23T10:25:25.715Z,16.10
2019-03-23T10:27:56.399Z,16.22
2019-03-23T10:30:26.910Z,16.27
2019-03-23T10:32:57.480Z,16.39
2019-03-23T10:35:27.940Z,16.39
2019-03-23T10:37:58.486Z,16.56
2019-03-23T10:40:32.691Z,16.71
2019-03-23T10:43:01.202Z,16.74
2019-03-23T10:45:31.790Z,16.83
2019-03-23T10:48:02.411Z,16.89
2019-03-23T10:50:32.921Z,17.03
2019-03-23T10:53:03.419Z,17.03
2019-03-23T10:55:33.940Z,17.19
2019-03-23T10:58:04.477Z,17.23
2019-03-23T11:00:35.069Z,17.39
2019-03-23T11:03:05.690Z,17.53
2019-03-23T11:05:36.328Z,17.63
2019-03-23T11:08:07.038Z,17.75
2019-03-23T11:10:41.928Z,17.64
2019-03-23T11:13:10.822Z,17.74
2019-03-23T11:15:41.271Z,17.76
2019-03-23T11:18:11.755Z,17.89
2019-03-23T11:20:42.263Z,17.91
2019-03-23T11:23:12.812Z,17.94
2019-03-23T11:25:43.400Z,18.20
2019-03-23T11:28:13.962Z,18.04
2019-03-23T11:30:44.413Z,18.35
2019-03-23T11:33:16.021Z,18.44
2019-03-23T11:35:46.564Z,18.48
2019-03-23T11:38:17.121Z,18.72
2019-03-23T11:40:52.895Z,18.73
2019-03-23T11:43:19.947Z,18.93
2019-03-23T11:45:50.463Z,19.13
2019-03-23T11:48:21.104Z,19.21
2019-03-23T11:50:51.634Z,19.34
2019-03-23T11:53:22.178Z,19.42
2019-03-23T11:55:52.696Z,19.50
2019-03-23T11:58:23.316Z,19.61
2019-03-23T12:00:53.752Z,19.75
2019-03-23T12:03:24.225Z,19.86
2019-03-23T12:05:54.673Z,20.13
2019-03-23T12:08:25.226Z,20.21
2019-03-23T12:11:02.824Z,20.34
2019-03-23T12:13:29.043Z,20.35
2019-03-23T12:15:59.494Z,20.46
2019-03-23T12:18:29.993Z,20.67
2019-03-23T12:21:00.428Z,21.07
2019-03-23T12:23:30.916Z,23.76
2019-03-23T12:26:01.410Z,25.30
2019-03-23T12:28:31.951Z,27.00
2019-03-23T12:31:02.378Z,28.27
2019-03-23T12:33:33.023Z,29.24
2019-03-23T12:36:03.498Z,29.84
2019-03-23T12:38:34.053Z,29.33
2019-03-23T12:41:14.348Z,29.72
2019-03-23T12:43:36.708Z,30.28
2019-03-23T12:46:07.148Z,29.24
2019-03-23T12:48:38.777Z,29.69
2019-03-23T12:51:09.217Z,30.90
2019-03-23T12:53:39.706Z,30.49
2019-03-23T12:56:10.147Z,30.54
2019-03-23T12:58:40.645Z,30.93
2019-03-23T13:01:11.077Z,31.14
2019-03-23T13:03:41.554Z,31.18
2019-03-23T13:06:12.066Z,32.08
2019-03-23T13:08:42.543Z,31.31
2019-03-23T13:11:23.090Z,31.05
2019-03-23T13:13:46.386Z,32.01
2019-03-23T13:16:16.846Z,32.02
2019-03-23T13:18:47.341Z,32.76
2019-03-23T13:21:17.786Z,33.35
2019-03-23T13:23:48.303Z,33.19
2019-03-23T13:26:18.828Z,32.68
2019-03-23T13:28:49.306Z,33.52
2019-03-23T13:31:19.830Z,34.66
2019-03-23T13:33:51.489Z,34.20
2019-03-23T13:36:21.973Z,33.34
2019-03-23T13:38:52.450Z,31.62
2019-03-23T13:41:23.046Z,32.97
2019-03-23T13:43:53.545Z,30.42
2019-03-23T13:46:25.068Z,33.96
2019-03-23T13:48:55.760Z,34.78
2019-03-23T13:51:26.276Z,34.19
2019-03-23T13:53:58.002Z,35.69
2019-03-23T13:56:28.534Z,34.74
2019-03-23T13:58:59.276Z,33.84
2019-03-23T14:01:29.715Z,34.27
2019-03-23T14:04:00.356Z,32.76
2019-03-23T14:06:30.795Z,33.07
2019-03-23T14:09:01.364Z,30.94
2019-03-23T14:11:31.997Z,31.29
2019-03-23T14:14:02.607Z,32.21
2019-03-23T14:16:33.141Z,33.17
2019-03-23T14:19:03.706Z,33.71
2019-03-23T14:21:36.396Z,34.86
2019-03-23T14:24:06.643Z,32.91
2019-03-23T14:26:37.173Z,32.49
2019-03-23T14:29:07.842Z,32.22
2019-03-23T14:31:38.407Z,33.47
2019-03-23T14:34:08.935Z,34.33
2019-03-23T14:36:41.486Z,33.57
2019-03-23T14:39:12.576Z,33.06
2019-03-23T14:41:43.129Z,32.64
2019-03-23T14:44:13.802Z,33.65
2019-03-23T14:46:44.777Z,32.32
2019-03-23T14:49:15.415Z,29.14
2019-03-23T14:51:45.856Z,30.59
2019-03-23T14:54:16.443Z,31.63
2019-03-23T14:56:46.966Z,29.13
2019-03-23T14:59:17.626Z,28.56
2019-03-23T15:01:48.049Z,30.06
2019-03-23T15:04:18.526Z,29.13
2019-03-23T15:06:49.035Z,26.95
2019-03-23T15:09:19.594Z,25.53
2019-03-23T15:11:50.107Z,24.81
2019-03-23T15:14:20.715Z,24.68
2019-03-23T15:16:51.158Z,24.12
2019-03-23T15:19:21.797Z,23.70
2019-03-23T15:21:52.239Z,23.16
2019-03-23T15:24:22.802Z,23.15
2019-03-23T15:26:53.332Z,22.91
2019-03-23T15:29:23.833Z,22.83
2019-03-23T15:31:54.491Z,22.72
2019-03-23T15:34:25.098Z,22.70
2019-03-23T15:36:55.569Z,22.71
2019-03-23T15:39:26.126Z,22.48
2019-03-23T15:41:56.549Z,21.78
2019-03-23T15:44:27.078Z,21.61
2019-03-23T15:46:57.529Z,21.35
2019-03-23T15:49:28.131Z,21.19
2019-03-23T15:51:58.564Z,21.10
2019-03-23T15:54:29.140Z,20.92
2019-03-23T15:57:00.461Z,20.84
2019-03-23T15:59:31.735Z,20.82
2019-03-23T16:02:02.244Z,20.87
2019-03-23T16:04:32.798Z,20.94
2019-03-23T16:07:03.396Z,21.00
2019-03-23T16:09:33.962Z,20.82
2019-03-23T16:12:04.427Z,20.82
2019-03-23T16:14:35.059Z,20.49
2019-03-23T16:17:06.014Z,20.31
2019-03-23T16:19:36.585Z,20.08
2019-03-23T16:22:07.274Z,19.93
2019-03-23T16:24:37.910Z,19.85
2019-03-23T16:27:09.575Z,19.63
2019-03-23T16:29:40.440Z,19.48
2019-03-23T16:32:10.895Z,19.30
2019-03-23T16:34:41.524Z,19.21
2019-03-23T16:37:12.001Z,19.07
2019-03-23T16:39:42.483Z,18.86
2019-03-23T16:42:13.007Z,18.68
2019-03-23T16:44:43.509Z,18.45
2019-03-23T16:47:14.034Z,18.18
2019-03-23T16:49:44.664Z,17.84
2019-03-23T16:52:15.199Z,17.56
2019-03-23T16:54:45.741Z,17.30
2019-03-23T16:57:16.188Z,17.06
2019-03-23T16:59:46.684Z,16.88
2019-03-23T17:02:17.211Z,16.64
2019-03-23T17:04:47.843Z,16.52
2019-03-23T17:07:18.377Z,16.33
2019-03-23T17:09:48.915Z,16.16
2019-03-23T17:12:20.427Z,16.02
2019-03-23T17:14:50.898Z,15.87
2019-03-23T17:17:21.480Z,15.77
2019-03-23T17:19:52.102Z,15.61
2019-03-23T17:22:22.574Z,15.49
2019-03-23T17:24:53.170Z,15.36
2019-03-23T17:27:23.715Z,15.19
2019-03-23T17:29:54.337Z,14.99
2019-03-23T17:32:24.849Z,14.71
2019-03-23T17:34:55.607Z,14.50
2019-03-23T17:37:26.063Z,14.32
2019-03-23T17:39:56.625Z,14.18
2019-03-23T17:42:27.210Z,13.97
2019-03-23T17:44:57.831Z,13.82
2019-03-23T17:47:28.539Z,13.63
2019-03-23T17:50:00.378Z,13.48
2019-03-23T17:52:30.905Z,13.34
2019-03-23T17:55:01.391Z,13.18
2019-03-23T17:57:33.012Z,13.04
2019-03-23T18:00:08.659Z,12.89
2019-03-23T18:02:40.314Z,12.78
2019-03-23T18:05:12.202Z,12.67
2019-03-23T18:07:43.011Z,12.57
2019-03-23T18:10:13.560Z,12.48
2019-03-23T18:12:44.169Z,12.35
2019-03-23T18:15:14.788Z,12.28
2019-03-23T18:17:45.428Z,12.17
2019-03-23T18:20:15.982Z,12.08
2019-03-23T18:22:46.575Z,12.01
2019-03-23T18:25:17.061Z,11.90
2019-03-23T18:27:48.823Z,11.84
2019-03-23T18:30:40.254Z,11.75
2019-03-23T18:33:10.706Z,11.68
2019-03-23T18:35:41.259Z,11.59
2019-03-23T18:38:11.772Z,11.57
2019-03-23T18:40:42.257Z,11.51
2019-03-23T18:43:12.686Z,11.43
2019-03-23T18:45:43.392Z,11.44
2019-03-23T18:48:13.944Z,11.36
2019-03-23T18:50:44.411Z,11.33
2019-03-23T18:53:14.978Z,11.30
2019-03-23T18:55:45.556Z,11.25
2019-03-23T18:58:16.070Z,11.20
2019-03-23T19:00:46.651Z,11.14
2019-03-23T19:03:17.099Z,11.11
2019-03-23T19:05:47.657Z,11.04
2019-03-23T19:08:18.268Z,11.05
2019-03-23T19:10:48.802Z,11.00
2019-03-23T19:13:19.259Z,10.97
2019-03-23T19:15:49.806Z,10.87
2019-03-23T19:18:20.334Z,10.82
2019-03-23T19:20:50.811Z,10.74
2019-03-23T19:23:21.377Z,10.69
2019-03-23T19:25:52.098Z,10.62
2019-03-23T19:28:22.630Z,10.60
2019-03-23T19:30:53.290Z,10.62
2019-03-23T19:33:23.955Z,10.61
2019-03-23T19:35:54.479Z,10.52
2019-03-23T19:38:24.960Z,10.45
2019-03-23T19:40:55.498Z,10.40
2019-03-23T19:43:26.038Z,10.39
2019-03-23T19:45:56.496Z,10.33
2019-03-23T19:48:27.050Z,10.29
2019-03-23T19:50:57.693Z,10.20
2019-03-23T19:53:28.246Z,10.18
2019-03-23T19:55:58.763Z,10.16
2019-03-23T19:58:29.243Z,10.11
2019-03-23T20:00:59.702Z,10.11
2019-03-23T20:03:30.356Z,10.04
2019-03-23T20:06:00.806Z,10.02
2019-03-23T20:08:32.354Z,9.95
2019-03-23T20:11:02.869Z,9.97
2019-03-23T20:13:33.365Z,9.91
2019-03-23T20:16:03.894Z,9.82
2019-03-23T20:18:34.436Z,9.75
2019-03-23T20:21:04.887Z,9.70
2019-03-23T20:23:35.409Z,9.63
2019-03-23T20:26:05.898Z,9.59
2019-03-23T20:28:36.467Z,9.61
2019-03-23T20:31:07.098Z,9.57
2019-03-23T20:33:37.708Z,9.48
2019-03-23T20:36:08.232Z,9.40
2019-03-23T20:38:39.274Z,9.36
2019-03-23T20:41:09.725Z,9.33
2019-03-23T20:43:40.196Z,9.29
2019-03-23T20:46:13.023Z,9.33
2019-03-23T20:48:42.978Z,9.25
2019-03-23T20:51:13.883Z,9.20
2019-03-23T20:53:44.684Z,9.25
2019-03-23T20:56:23.678Z,9.24
2019-03-23T20:58:57.356Z,9.22
2019-03-23T21:01:27.885Z,9.23
2019-03-23T21:03:58.359Z,9.20
2019-03-23T21:06:28.868Z,9.20
2019-03-23T21:08:59.706Z,9.18
2019-03-23T21:11:30.231Z,9.14
2019-03-23T21:14:00.777Z,9.13
2019-03-23T21:16:31.282Z,9.04
2019-03-23T21:19:01.751Z,9.12
2019-03-23T21:21:32.271Z,9.02
2019-03-23T21:24:02.818Z,8.99
2019-03-23T21:26:33.311Z,8.93
2019-03-23T21:29:03.854Z,8.93
2019-03-23T21:31:34.383Z,8.98
2019-03-23T21:34:04.860Z,8.97
2019-03-23T21:36:36.367Z,8.92
2019-03-23T21:39:07.473Z,8.88
2019-03-23T21:41:37.991Z,8.82
2019-03-23T21:44:08.625Z,8.74
2019-03-23T21:46:39.155Z,8.75
2019-03-23T21:49:09.716Z,8.70
2019-03-23T21:51:40.239Z,8.68
2019-03-23T21:54:10.785Z,8.63
2019-03-23T21:56:41.313Z,8.67
2019-03-23T21:59:11.882Z,8.60
2019-03-23T22:01:42.332Z,8.50
2019-03-23T22:04:12.859Z,8.46
2019-03-23T22:06:44.357Z,8.46
2019-03-23T22:09:14.855Z,8.41
2019-03-23T22:11:45.419Z,8.37
2019-03-23T22:14:15.975Z,8.28
2019-03-23T22:16:46.573Z,8.27
2019-03-23T22:19:17.113Z,8.29
2019-03-23T22:21:47.784Z,8.26
2019-03-23T22:24:18.261Z,8.25
2019-03-23T22:26:48.724Z,8.17
2019-03-23T22:29:19.279Z,8.11
2019-03-23T22:31:49.775Z,8.07
2019-03-23T22:34:20.250Z,8.07
2019-03-23T22:36:50.689Z,8.02
2019-03-23T22:39:21.228Z,7.93
2019-03-23T22:41:51.741Z,7.91
2019-03-23T22:44:22.303Z,7.93
2019-03-23T22:46:52.799Z,7.87
2019-03-23T22:49:23.354Z,7.80
2019-03-23T22:51:54.014Z,7.72
2019-03-23T22:54:24.570Z,7.67
2019-03-23T22:56:55.057Z,7.63
2019-03-23T22:59:25.572Z,7.62
2019-03-23T23:01:56.206Z,7.56
2019-03-23T23:04:26.743Z,7.46
2019-03-23T23:06:57.254Z,7.45
2019-03-23T23:09:27.796Z,7.48
2019-03-23T23:11:58.247Z,7.45
2019-03-23T23:14:28.713Z,7.43
2019-03-23T23:16:59.206Z,7.35
2019-03-23T23:19:29.818Z,7.31
2019-03-23T23:22:01.667Z,7.28
2019-03-23T23:24:32.198Z,7.21
2019-03-23T23:27:02.717Z,7.14
2019-03-23T23:29:33.252Z,7.14
2019-03-23T23:32:03.764Z,7.10
2019-03-23T23:34:34.368Z,7.06
2019-03-23T23:37:05.008Z,6.99
2019-03-23T23:39:35.732Z,6.95
2019-03-23T23:42:06.248Z,6.91
2019-03-23T23:44:37.805Z,6.90
2019-03-23T23:47:08.383Z,6.85
2019-03-23T23:49:39.022Z,6.88
2019-03-23T23:52:09.631Z,6.85
2019-03-23T23:54:40.169Z,6.87
2019-03-23T23:57:10.597Z,6.82
2019-03-23T23:59:41.123Z,6.83
